Trostan, United Kingdom
Current Conditions -  °F | °C
As of 12:20 PM on Monday 20 Oct 2014 (Local Time) from EGAA Reporting Station
Broken Clouds Broken Clouds  
Wind Chill: 54°   Ceiling: 1300
Heat Index: 54°   Visibility: 6mi
Dew Point: 50°   Wind: 14mph
Humidity: 88%   Direction: 230°SW
Pressure: 29.8"   Gusts: NA
Location:  55.08°N, 6.17°W
Report Text: EGAA 201120Z 23012KT 9999 BKN013 BKN017 12/10 Q1009
Loading
Personal Weather Stations






























Interactive Weather Map
Tropical Storm Tracking
New forecast layout! Learn more

10-Day Weather Forecast

Advertisements
Track Severe Weather on mobile